Elista, Russia
Current Conditions -  °F | °C
As of 8:30 AM on Thursday 23 Oct 2014 (Local Time) from URWI Reporting Station
Moderate Fog Moderate Fog  
Wind Chill: 50°   Ceiling: 200
Heat Index: 50°   Visibility: 0.15mi
Dew Point: 50°   Wind: 9mph
Humidity: 100%   Direction: 80°E
Pressure: 29.97"   Gusts: NA
Location:  46.32°N, 44.21°E
Report Text: URWI 230530Z 08004MPS 0250 FG VV002 10/10 Q1015 NOSIG RMKQBB060 OBST OBSC
Loading
Personal Weather Stations






























Interactive Weather Map
Tropical Storm Tracking
New forecast layout! Learn more

10-Day Weather Forecast

Advertisements
Track Severe Weather on mobile